sensor_id;sensor_type;location;lat;lon;timestamp;temperature;humidity
18073;DHT22;9161;47.348;9.648;2023-05-13T00:02:43;11.20;99.90
18073;DHT22;9161;47.348;9.648;2023-05-13T00:07:45;11.20;99.90
18073;DHT22;9161;47.348;9.648;2023-05-13T00:12:47;11.10;99.90
18073;DHT22;9161;47.348;9.648;2023-05-13T00:17:51;11.10;99.90
18073;DHT22;9161;47.348;9.648;2023-05-13T00:22:53;11.00;99.90
18073;DHT22;9161;47.348;9.648;2023-05-13T00:27:55;11.00;99.90
18073;DHT22;9161;47.348;9.648;2023-05-13T00:32:58;11.10;99.90
18073;DHT22;9161;47.348;9.648;2023-05-13T00:38:00;11.10;99.90
18073;DHT22;9161;47.348;9.648;2023-05-13T00:43:02;11.10;99.90
18073;DHT22;9161;47.348;9.648;2023-05-13T00:48:07;11.10;99.90
18073;DHT22;9161;47.348;9.648;2023-05-13T00:53:09;11.10;99.90
18073;DHT22;9161;47.348;9.648;2023-05-13T00:58:12;11.10;99.90
18073;DHT22;9161;47.348;9.648;2023-05-13T01:03:20;11.00;99.90
18073;DHT22;9161;47.348;9.648;2023-05-13T01:08:31;11.10;99.90
18073;DHT22;9161;47.348;9.648;2023-05-13T01:13:36;11.10;99.90
18073;DHT22;9161;47.348;9.648;2023-05-13T01:18:47;11.10;99.90
18073;DHT22;9161;47.348;9.648;2023-05-13T01:23:51;11.20;99.90
18073;DHT22;9161;47.348;9.648;2023-05-13T01:28:53;11.20;99.90
18073;DHT22;9161;47.348;9.648;2023-05-13T01:33:56;11.20;99.90
18073;DHT22;9161;47.348;9.648;2023-05-13T01:39:00;11.30;99.90
18073;DHT22;9161;47.348;9.648;2023-05-13T01:44:03;11.30;99.90
18073;DHT22;9161;47.348;9.648;2023-05-13T01:49:05;11.40;99.90
18073;DHT22;9161;47.348;9.648;2023-05-13T01:54:11;11.50;99.90
18073;DHT22;9161;47.348;9.648;2023-05-13T01:59:13;11.60;99.90
18073;DHT22;9161;47.348;9.648;2023-05-13T02:04:15;11.60;99.90
18073;DHT22;9161;47.348;9.648;2023-05-13T02:09:19;11.60;99.90
18073;DHT22;9161;47.348;9.648;2023-05-13T02:14:21;11.70;99.90
18073;DHT22;9161;47.348;9.648;2023-05-13T02:19:22;11.80;99.90
18073;DHT22;9161;47.348;9.648;2023-05-13T02:24:27;11.80;99.90
18073;DHT22;9161;47.348;9.648;2023-05-13T02:29:29;11.80;99.90
18073;DHT22;9161;47.348;9.648;2023-05-13T02:34:31;11.90;99.90
18073;DHT22;9161;47.348;9.648;2023-05-13T02:39:34;11.90;99.90
18073;DHT22;9161;47.348;9.648;2023-05-13T02:44:36;12.00;99.90
18073;DHT22;9161;47.348;9.648;2023-05-13T02:49:38;11.90;99.90
18073;DHT22;9161;47.348;9.648;2023-05-13T02:54:41;11.90;99.90
18073;DHT22;9161;47.348;9.648;2023-05-13T02:59:44;11.90;99.90
18073;DHT22;9161;47.348;9.648;2023-05-13T03:04:46;11.80;99.90
18073;DHT22;9161;47.348;9.648;2023-05-13T03:09:49;11.90;99.90
18073;DHT22;9161;47.348;9.648;2023-05-13T03:14:51;11.90;99.90
18073;DHT22;9161;47.348;9.648;2023-05-13T03:32:37;11.80;99.90
18073;DHT22;9161;47.348;9.648;2023-05-13T03:37:39;11.80;99.90
18073;DHT22;9161;47.348;9.648;2023-05-13T03:42:41;11.80;99.90
18073;DHT22;9161;47.348;9.648;2023-05-13T03:47:44;11.80;99.90
18073;DHT22;9161;47.348;9.648;2023-05-13T03:52:46;11.70;99.90
18073;DHT22;9161;47.348;9.648;2023-05-13T03:57:49;11.70;99.90
18073;DHT22;9161;47.348;9.648;2023-05-13T04:02:52;11.80;99.90
18073;DHT22;9161;47.348;9.648;2023-05-13T04:07:54;11.60;99.90
18073;DHT22;9161;47.348;9.648;2023-05-13T04:12:56;11.70;99.90
18073;DHT22;9161;47.348;9.648;2023-05-13T04:17:59;11.70;99.90
18073;DHT22;9161;47.348;9.648;2023-05-13T04:23:02;11.70;99.90
18073;DHT22;9161;47.348;9.648;2023-05-13T04:28:04;11.80;99.90
18073;DHT22;9161;47.348;9.648;2023-05-13T04:33:08;11.70;99.90
18073;DHT22;9161;47.348;9.648;2023-05-13T04:38:10;11.70;99.90
18073;DHT22;9161;47.348;9.648;2023-05-13T04:43:13;11.70;99.90
18073;DHT22;9161;47.348;9.648;2023-05-13T04:48:16;11.70;99.90
18073;DHT22;9161;47.348;9.648;2023-05-13T04:53:18;11.70;99.90
18073;DHT22;9161;47.348;9.648;2023-05-13T04:58:20;11.70;99.90
18073;DHT22;9161;47.348;9.648;2023-05-13T05:03:23;11.80;99.90
18073;DHT22;9161;47.348;9.648;2023-05-13T05:08:25;11.90;99.90
18073;DHT22;9161;47.348;9.648;2023-05-13T05:13:28;11.90;99.90
18073;DHT22;9161;47.348;9.648;2023-05-13T05:18:32;12.00;99.90
18073;DHT22;9161;47.348;9.648;2023-05-13T05:23:35;12.00;99.90
18073;DHT22;9161;47.348;9.648;2023-05-13T05:28:37;12.00;99.90
18073;DHT22;9161;47.348;9.648;2023-05-13T05:33:41;12.10;99.90
18073;DHT22;9161;47.348;9.648;2023-05-13T05:38:43;12.10;99.90
18073;DHT22;9161;47.348;9.648;2023-05-13T05:43:46;12.10;99.90
18073;DHT22;9161;47.348;9.648;2023-05-13T05:48:50;12.20;99.90
18073;DHT22;9161;47.348;9.648;2023-05-13T05:53:52;12.30;99.90
18073;DHT22;9161;47.348;9.648;2023-05-13T05:58:54;12.30;99.90
18073;DHT22;9161;47.348;9.648;2023-05-13T06:03:57;12.30;99.90
18073;DHT22;9161;47.348;9.648;2023-05-13T06:09:00;12.30;99.90
18073;DHT22;9161;47.348;9.648;2023-05-13T06:14:02;12.30;99.90
18073;DHT22;9161;47.348;9.648;2023-05-13T06:19:05;12.40;99.90
18073;DHT22;9161;47.348;9.648;2023-05-13T06:24:07;12.50;99.90
18073;DHT22;9161;47.348;9.648;2023-05-13T06:29:14;12.60;99.90
18073;DHT22;9161;47.348;9.648;2023-05-13T06:34:38;12.70;99.90
18073;DHT22;9161;47.348;9.648;2023-05-13T06:40:41;12.90;99.90
18073;DHT22;9161;47.348;9.648;2023-05-13T06:45:22;13.00;99.90
18073;DHT22;9161;47.348;9.648;2023-05-13T06:50:26;13.20;99.90
18073;DHT22;9161;47.348;9.648;2023-05-13T06:55:28;13.30;99.90
18073;DHT22;9161;47.348;9.648;2023-05-13T07:00:30;13.30;99.90
18073;DHT22;9161;47.348;9.648;2023-05-13T07:05:33;13.40;99.90
18073;DHT22;9161;47.348;9.648;2023-05-13T07:10:36;13.70;99.90
18073;DHT22;9161;47.348;9.648;2023-05-13T07:15:38;13.90;99.90
18073;DHT22;9161;47.348;9.648;2023-05-13T07:20:42;14.10;99.90
18073;DHT22;9161;47.348;9.648;2023-05-13T07:25:44;14.30;99.90
18073;DHT22;9161;47.348;9.648;2023-05-13T07:30:46;14.50;99.90
18073;DHT22;9161;47.348;9.648;2023-05-13T07:35:50;14.80;99.90
18073;DHT22;9161;47.348;9.648;2023-05-13T07:40:52;14.90;99.90
18073;DHT22;9161;47.348;9.648;2023-05-13T07:45:54;15.10;99.90
18073;DHT22;9161;47.348;9.648;2023-05-13T07:50:57;15.20;99.90
18073;DHT22;9161;47.348;9.648;2023-05-13T07:56:00;15.20;99.90
18073;DHT22;9161;47.348;9.648;2023-05-13T08:01:01;15.30;99.90
18073;DHT22;9161;47.348;9.648;2023-05-13T08:06:06;15.10;99.90
18073;DHT22;9161;47.348;9.648;2023-05-13T08:11:08;15.40;99.90
18073;DHT22;9161;47.348;9.648;2023-05-13T08:16:10;15.70;99.90
18073;DHT22;9161;47.348;9.648;2023-05-13T08:21:14;16.00;99.90
18073;DHT22;9161;47.348;9.648;2023-05-13T08:26:16;16.40;99.90
18073;DHT22;9161;47.348;9.648;2023-05-13T08:31:18;16.60;99.90
18073;DHT22;9161;47.348;9.648;2023-05-13T08:36:22;16.50;99.90
18073;DHT22;9161;47.348;9.648;2023-05-13T08:41:25;16.30;99.90
18073;DHT22;9161;47.348;9.648;2023-05-13T08:46:29;16.00;99.90
18073;DHT22;9161;47.348;9.648;2023-05-13T08:51:35;16.20;99.90
18073;DHT22;9161;47.348;9.648;2023-05-13T08:56:37;16.20;99.90
18073;DHT22;9161;47.348;9.648;2023-05-13T09:01:39;16.40;99.90
18073;DHT22;9161;47.348;9.648;2023-05-13T09:06:42;16.50;99.90
18073;DHT22;9161;47.348;9.648;2023-05-13T09:11:47;16.50;99.90
18073;DHT22;9161;47.348;9.648;2023-05-13T09:16:50;16.60;99.90
18073;DHT22;9161;47.348;9.648;2023-05-13T09:21:53;16.50;99.90
18073;DHT22;9161;47.348;9.648;2023-05-13T09:26:56;16.30;99.90
18073;DHT22;9161;47.348;9.648;2023-05-13T09:31:59;16.50;99.90
18073;DHT22;9161;47.348;9.648;2023-05-13T09:37:05;16.20;99.90
18073;DHT22;9161;47.348;9.648;2023-05-13T09:42:14;16.40;99.90
18073;DHT22;9161;47.348;9.648;2023-05-13T09:47:16;16.20;99.90
18073;DHT22;9161;47.348;9.648;2023-05-13T09:52:21;16.60;99.90
18073;DHT22;9161;47.348;9.648;2023-05-13T09:57:25;17.20;99.90
18073;DHT22;9161;47.348;9.648;2023-05-13T10:02:27;16.80;99.90
18073;DHT22;9161;47.348;9.648;2023-05-13T10:07:31;16.50;99.90
18073;DHT22;9161;47.348;9.648;2023-05-13T10:12:35;16.60;99.90
18073;DHT22;9161;47.348;9.648;2023-05-13T10:17:40;17.00;99.90
18073;DHT22;9161;47.348;9.648;2023-05-13T10:22:43;17.00;99.90
18073;DHT22;9161;47.348;9.648;2023-05-13T10:27:46;17.00;99.90
18073;DHT22;9161;47.348;9.648;2023-05-13T10:32:49;17.20;99.90
18073;DHT22;9161;47.348;9.648;2023-05-13T10:38:00;17.00;99.90
18073;DHT22;9161;47.348;9.648;2023-05-13T10:43:10;16.70;99.90
18073;DHT22;9161;47.348;9.648;2023-05-13T10:48:14;16.80;99.90
18073;DHT22;9161;47.348;9.648;2023-05-13T10:53:21;16.20;99.90
18073;DHT22;9161;47.348;9.648;2023-05-13T10:58:31;16.90;99.90
18073;DHT22;9161;47.348;9.648;2023-05-13T11:03:34;17.60;99.90
18073;DHT22;9161;47.348;9.648;2023-05-13T11:08:39;18.50;99.90
18073;DHT22;9161;47.348;9.648;2023-05-13T11:13:41;19.30;99.90
18073;DHT22;9161;47.348;9.648;2023-05-13T11:18:43;19.20;99.90
18073;DHT22;9161;47.348;9.648;2023-05-13T11:23:56;19.00;99.90
18073;DHT22;9161;47.348;9.648;2023-05-13T11:29:03;19.00;99.90
18073;DHT22;9161;47.348;9.648;2023-05-13T11:34:06;19.60;99.90
18073;DHT22;9161;47.348;9.648;2023-05-13T11:39:12;19.50;99.90
18073;DHT22;9161;47.348;9.648;2023-05-13T11:44:16;19.20;99.90
18073;DHT22;9161;47.348;9.648;2023-05-13T11:49:36;18.20;99.90
18073;DHT22;9161;47.348;9.648;2023-05-13T11:54:42;18.30;99.90
18073;DHT22;9161;47.348;9.648;2023-05-13T11:59:49;17.80;99.90
18073;DHT22;9161;47.348;9.648;2023-05-13T12:04:52;18.30;99.90
18073;DHT22;9161;47.348;9.648;2023-05-13T12:09:58;17.80;99.90
18073;DHT22;9161;47.348;9.648;2023-05-13T12:15:02;17.60;99.90
18073;DHT22;9161;47.348;9.648;2023-05-13T12:20:07;17.00;99.90
18073;DHT22;9161;47.348;9.648;2023-05-13T12:25:38;16.80;99.90
18073;DHT22;9161;47.348;9.648;2023-05-13T12:30:42;16.40;99.90
18073;DHT22;9161;47.348;9.648;2023-05-13T12:35:47;16.40;99.90
18073;DHT22;9161;47.348;9.648;2023-05-13T12:40:51;16.60;99.90
18073;DHT22;9161;47.348;9.648;2023-05-13T12:45:54;16.60;99.90
18073;DHT22;9161;47.348;9.648;2023-05-13T12:50:56;16.90;99.90
18073;DHT22;9161;47.348;9.648;2023-05-13T12:56:03;16.60;99.90
18073;DHT22;9161;47.348;9.648;2023-05-13T13:01:05;16.90;99.90
18073;DHT22;9161;47.348;9.648;2023-05-13T13:06:07;16.70;99.90
18073;DHT22;9161;47.348;9.648;2023-05-13T13:11:11;16.40;99.90
18073;DHT22;9161;47.348;9.648;2023-05-13T13:16:18;16.30;99.90
18073;DHT22;9161;47.348;9.648;2023-05-13T13:21:21;16.00;99.90
18073;DHT22;9161;47.348;9.648;2023-05-13T13:26:25;15.70;99.90
18073;DHT22;9161;47.348;9.648;2023-05-13T13:31:27;16.00;99.90
18073;DHT22;9161;47.348;9.648;2023-05-13T13:36:29;16.10;99.90
18073;DHT22;9161;47.348;9.648;2023-05-13T13:41:33;16.80;99.90
18073;DHT22;9161;47.348;9.648;2023-05-13T13:46:35;17.90;99.90
18073;DHT22;9161;47.348;9.648;2023-05-13T13:51:37;19.30;99.90
18073;DHT22;9161;47.348;9.648;2023-05-13T13:56:41;19.90;99.90
18073;DHT22;9161;47.348;9.648;2023-05-13T14:01:44;19.00;99.90
18073;DHT22;9161;47.348;9.648;2023-05-13T14:06:46;18.10;99.90
18073;DHT22;9161;47.348;9.648;2023-05-13T14:11:50;17.80;99.90
18073;DHT22;9161;47.348;9.648;2023-05-13T14:16:52;17.40;99.90
18073;DHT22;9161;47.348;9.648;2023-05-13T14:21:54;18.20;99.90
18073;DHT22;9161;47.348;9.648;2023-05-13T14:26:58;18.40;99.90
18073;DHT22;9161;47.348;9.648;2023-05-13T14:32:00;18.60;99.90
18073;DHT22;9161;47.348;9.648;2023-05-13T14:37:04;19.40;99.90
18073;DHT22;9161;47.348;9.648;2023-05-13T14:42:07;19.60;99.90
18073;DHT22;9161;47.348;9.648;2023-05-13T14:47:11;20.10;99.90
18073;DHT22;9161;47.348;9.648;2023-05-13T14:52:13;20.90;99.90
18073;DHT22;9161;47.348;9.648;2023-05-13T14:57:16;22.00;99.90
18073;DHT22;9161;47.348;9.648;2023-05-13T15:02:18;21.10;99.90
18073;DHT22;9161;47.348;9.648;2023-05-13T15:07:21;21.00;99.90
18073;DHT22;9161;47.348;9.648;2023-05-13T15:12:24;20.40;99.90
18073;DHT22;9161;47.348;9.648;2023-05-13T15:17:28;19.40;99.90
18073;DHT22;9161;47.348;9.648;2023-05-13T15:22:30;17.90;99.90
18073;DHT22;9161;47.348;9.648;2023-05-13T15:27:35;17.10;99.90
18073;DHT22;9161;47.348;9.648;2023-05-13T15:32:37;16.50;99.90
18073;DHT22;9161;47.348;9.648;2023-05-13T15:37:40;16.40;99.90
18073;DHT22;9161;47.348;9.648;2023-05-13T15:42:44;16.20;99.90
18073;DHT22;9161;47.348;9.648;2023-05-13T15:47:47;16.30;99.90
18073;DHT22;9161;47.348;9.648;2023-05-13T15:52:50;16.30;99.90
18073;DHT22;9161;47.348;9.648;2023-05-13T15:57:57;16.20;99.90
18073;DHT22;9161;47.348;9.648;2023-05-13T16:02:59;16.30;99.90
18073;DHT22;9161;47.348;9.648;2023-05-13T16:08:01;16.10;99.90
18073;DHT22;9161;47.348;9.648;2023-05-13T16:13:04;16.10;99.90
18073;DHT22;9161;47.348;9.648;2023-05-13T16:18:06;16.00;99.90
18073;DHT22;9161;47.348;9.648;2023-05-13T16:23:08;15.90;99.90
18073;DHT22;9161;47.348;9.648;2023-05-13T16:28:11;15.80;99.90
18073;DHT22;9161;47.348;9.648;2023-05-13T16:33:14;15.70;99.90
18073;DHT22;9161;47.348;9.648;2023-05-13T16:38:17;15.40;99.90
18073;DHT22;9161;47.348;9.648;2023-05-13T16:43:21;15.30;99.90
18073;DHT22;9161;47.348;9.648;2023-05-13T16:48:23;15.00;99.90
18073;DHT22;9161;47.348;9.648;2023-05-13T16:53:26;14.80;99.90
18073;DHT22;9161;47.348;9.648;2023-05-13T16:58:30;14.60;99.90
18073;DHT22;9161;47.348;9.648;2023-05-13T17:03:33;14.50;99.90
18073;DHT22;9161;47.348;9.648;2023-05-13T17:08:36;14.50;99.90
18073;DHT22;9161;47.348;9.648;2023-05-13T17:13:40;14.50;99.90
18073;DHT22;9161;47.348;9.648;2023-05-13T17:18:42;14.40;99.90
18073;DHT22;9161;47.348;9.648;2023-05-13T17:23:45;14.40;99.90
18073;DHT22;9161;47.348;9.648;2023-05-13T17:28:50;14.20;99.90
18073;DHT22;9161;47.348;9.648;2023-05-13T17:33:53;14.10;99.90
18073;DHT22;9161;47.348;9.648;2023-05-13T17:38:55;14.10;99.90
18073;DHT22;9161;47.348;9.648;2023-05-13T17:44:00;13.90;99.90
18073;DHT22;9161;47.348;9.648;2023-05-13T17:49:03;13.90;99.90
18073;DHT22;9161;47.348;9.648;2023-05-13T17:54:06;13.80;99.90
18073;DHT22;9161;47.348;9.648;2023-05-13T17:59:10;13.80;99.90
18073;DHT22;9161;47.348;9.648;2023-05-13T18:04:12;14.00;99.90
18073;DHT22;9161;47.348;9.648;2023-05-13T18:09:15;14.00;99.90
18073;DHT22;9161;47.348;9.648;2023-05-13T18:14:19;13.90;99.90
18073;DHT22;9161;47.348;9.648;2023-05-13T18:19:22;13.90;99.90
18073;DHT22;9161;47.348;9.648;2023-05-13T18:24:26;13.90;99.90
18073;DHT22;9161;47.348;9.648;2023-05-13T18:29:30;13.90;99.90
18073;DHT22;9161;47.348;9.648;2023-05-13T18:34:33;13.90;99.90
18073;DHT22;9161;47.348;9.648;2023-05-13T18:39:36;13.70;99.90
18073;DHT22;9161;47.348;9.648;2023-05-13T18:44:41;13.70;99.90
18073;DHT22;9161;47.348;9.648;2023-05-13T18:49:44;13.60;99.90
18073;DHT22;9161;47.348;9.648;2023-05-13T18:54:47;13.40;99.90
18073;DHT22;9161;47.348;9.648;2023-05-13T18:59:51;13.30;99.90
18073;DHT22;9161;47.348;9.648;2023-05-13T19:04:57;13.20;99.90
18073;DHT22;9161;47.348;9.648;2023-05-13T19:10:03;13.20;99.90
18073;DHT22;9161;47.348;9.648;2023-05-13T19:15:12;13.30;99.90
18073;DHT22;9161;47.348;9.648;2023-05-13T19:20:18;13.30;99.90
18073;DHT22;9161;47.348;9.648;2023-05-13T19:25:23;13.30;99.90
18073;DHT22;9161;47.348;9.648;2023-05-13T19:30:28;13.30;99.90
18073;DHT22;9161;47.348;9.648;2023-05-13T19:35:33;13.30;99.90
18073;DHT22;9161;47.348;9.648;2023-05-13T19:40:38;13.30;99.90
18073;DHT22;9161;47.348;9.648;2023-05-13T19:45:44;13.20;99.90
18073;DHT22;9161;47.348;9.648;2023-05-13T19:50:49;13.10;99.90
18073;DHT22;9161;47.348;9.648;2023-05-13T19:55:53;13.10;99.90
18073;DHT22;9161;47.348;9.648;2023-05-13T20:00:59;13.00;99.90
18073;DHT22;9161;47.348;9.648;2023-05-13T20:06:03;13.00;99.90
18073;DHT22;9161;47.348;9.648;2023-05-13T20:11:07;13.00;99.90
18073;DHT22;9161;47.348;9.648;2023-05-13T20:16:12;13.00;99.90
18073;DHT22;9161;47.348;9.648;2023-05-13T20:21:16;13.10;99.90
18073;DHT22;9161;47.348;9.648;2023-05-13T20:26:20;13.10;99.90
18073;DHT22;9161;47.348;9.648;2023-05-13T20:31:30;13.10;99.90
18073;DHT22;9161;47.348;9.648;2023-05-13T20:36:35;13.00;99.90
18073;DHT22;9161;47.348;9.648;2023-05-13T20:41:38;13.00;99.90
18073;DHT22;9161;47.348;9.648;2023-05-13T20:46:45;13.00;99.90
18073;DHT22;9161;47.348;9.648;2023-05-13T20:51:50;13.00;99.90
18073;DHT22;9161;47.348;9.648;2023-05-13T20:56:53;13.00;99.90
18073;DHT22;9161;47.348;9.648;2023-05-13T21:01:58;13.00;99.90
18073;DHT22;9161;47.348;9.648;2023-05-13T21:07:01;13.00;99.90
18073;DHT22;9161;47.348;9.648;2023-05-13T21:12:06;13.00;99.90
18073;DHT22;9161;47.348;9.648;2023-05-13T21:17:10;13.00;99.90
18073;DHT22;9161;47.348;9.648;2023-05-13T21:22:12;12.90;99.90
18073;DHT22;9161;47.348;9.648;2023-05-13T21:27:15;12.80;99.90
18073;DHT22;9161;47.348;9.648;2023-05-13T21:32:18;12.80;99.90
18073;DHT22;9161;47.348;9.648;2023-05-13T21:37:20;12.80;99.90
18073;DHT22;9161;47.348;9.648;2023-05-13T21:42:22;12.80;99.90
18073;DHT22;9161;47.348;9.648;2023-05-13T21:47:26;12.80;99.90
18073;DHT22;9161;47.348;9.648;2023-05-13T21:52:29;12.80;99.90
18073;DHT22;9161;47.348;9.648;2023-05-13T21:57:30;12.70;99.90
18073;DHT22;9161;47.348;9.648;2023-05-13T22:02:34;12.70;99.90
18073;DHT22;9161;47.348;9.648;2023-05-13T22:07:36;12.70;99.90
18073;DHT22;9161;47.348;9.648;2023-05-13T22:12:39;12.60;99.90
18073;DHT22;9161;47.348;9.648;2023-05-13T22:17:42;12.70;99.90
18073;DHT22;9161;47.348;9.648;2023-05-13T22:22:44;12.70;99.90
18073;DHT22;9161;47.348;9.648;2023-05-13T22:27:47;12.70;99.90
18073;DHT22;9161;47.348;9.648;2023-05-13T22:32:51;12.70;99.90
18073;DHT22;9161;47.348;9.648;2023-05-13T22:37:53;12.70;99.90
18073;DHT22;9161;47.348;9.648;2023-05-13T22:42:55;12.60;99.90
18073;DHT22;9161;47.348;9.648;2023-05-13T22:47:58;12.60;99.90
18073;DHT22;9161;47.348;9.648;2023-05-13T22:53:01;12.60;99.90
18073;DHT22;9161;47.348;9.648;2023-05-13T22:58:03;12.60;99.90
18073;DHT22;9161;47.348;9.648;2023-05-13T23:03:07;12.60;99.90
18073;DHT22;9161;47.348;9.648;2023-05-13T23:08:09;12.60;99.90
18073;DHT22;9161;47.348;9.648;2023-05-13T23:13:11;12.50;99.90
18073;DHT22;9161;47.348;9.648;2023-05-13T23:18:14;12.50;99.90
18073;DHT22;9161;47.348;9.648;2023-05-13T23:23:16;12.50;99.90
18073;DHT22;9161;47.348;9.648;2023-05-13T23:28:18;12.40;99.90
18073;DHT22;9161;47.348;9.648;2023-05-13T23:33:21;12.30;99.90
18073;DHT22;9161;47.348;9.648;2023-05-13T23:38:23;12.30;99.90
18073;DHT22;9161;47.348;9.648;2023-05-13T23:43:25;12.30;99.90
18073;DHT22;9161;47.348;9.648;2023-05-13T23:48:28;12.20;99.90
18073;DHT22;9161;47.348;9.648;2023-05-13T23:53:31;12.20;99.90
18073;DHT22;9161;47.348;9.648;2023-05-13T23:58:33;12.20;99.90
